Time;durP1;ratioP1;P1;durP2;ratioP2;P2;SDS_P1;SDS_P2;PMS_P1;PMS_P2;Temp;Humidity;BMP_temperature;BMP_pressure;BME280_temperature;BME280_humidity;BME280_pressure;Samples;Min_cycle;Max_cycle;Signal;HPM_P1;HPM_P2
2022/10/26 00:00:44;;;;;;;10.32;5.88;;;;;;;10.03;100.00;93996.75;5084196;28;21260;-67
2022/10/26 00:03:11;;;;;;;13.80;6.20;;;;;;;9.97;100.00;94007.38;5069912;28;20049;-66
2022/10/26 00:05:38;;;;;;;10.95;5.78;;;;;;;9.84;100.00;94011.84;5069423;28;20044;-66
2022/10/26 00:08:05;;;;;;;12.02;6.32;;;;;;;9.66;100.00;94008.50;5069846;28;20042;-66
2022/10/26 00:10:36;;;;;;;11.70;6.30;;;;;;;9.65;100.00;94023.41;5069006;28;20413;-67
2022/10/26 00:13:07;;;;;;;14.18;6.50;;;;;;;9.78;100.00;94016.22;5069910;28;20070;-66
2022/10/26 00:15:34;;;;;;;11.93;6.13;;;;;;;9.76;100.00;94016.63;5068887;28;20045;-65
2022/10/26 00:18:01;;;;;;;11.48;6.32;;;;;;;9.91;100.00;94016.47;5069693;28;20412;-66
2022/10/26 00:20:27;;;;;;;12.57;6.85;;;;;;;9.95;100.00;94020.72;5068718;28;20060;-66
2022/10/26 00:22:54;;;;;;;13.35;6.47;;;;;;;9.99;100.00;93999.53;5069367;28;20063;-67
2022/10/26 00:25:20;;;;;;;11.88;6.10;;;;;;;9.99;100.00;94006.97;5070796;28;20052;-67
2022/10/26 00:27:47;;;;;;;13.73;7.10;;;;;;;10.13;100.00;93990.34;5073606;28;20040;-66
2022/10/26 00:30:14;;;;;;;13.00;7.30;;;;;;;10.10;100.00;93995.88;5071900;28;20486;-66
2022/10/26 00:32:41;;;;;;;14.15;8.10;;;;;;;10.24;100.00;93992.97;5072912;28;20041;-66
2022/10/26 00:35:08;;;;;;;15.13;7.72;;;;;;;10.03;100.00;93988.50;5073367;28;20451;-69
2022/10/26 00:37:54;;;;;;;12.55;7.07;;;;;;;9.99;100.00;93976.81;5072515;28;21474;-65
2022/10/26 00:40:26;;;;;;;14.30;6.77;;;;;;;9.91;100.00;93970.63;5072633;28;20482;-69
2022/10/26 00:42:52;;;;;;;12.70;6.65;;;;;;;10.06;100.00;93970.47;5073307;28;20451;-67
2022/10/26 00:45:27;;;;;;;13.68;6.57;;;;;;;10.10;100.00;93958.28;5072265;28;20047;-64
2022/10/26 00:48:01;;;;;;;12.40;6.43;;;;;;;10.11;100.00;93951.59;5088473;28;20251;-68
2022/10/26 00:50:35;;;;;;;13.13;6.68;;;;;;;10.02;100.00;93959.56;5072328;28;20421;-67
2022/10/26 00:53:05;;;;;;;12.33;6.27;;;;;;;10.02;100.00;93962.31;5069477;28;20053;-68
2022/10/26 00:55:40;;;;;;;10.35;6.10;;;;;;;10.09;100.00;93972.41;5071622;28;20115;-68
2022/10/26 00:58:08;;;;;;;10.77;6.30;;;;;;;10.13;100.00;93975.88;5073328;28;20033;-68
2022/10/26 01:00:35;;;;;;;13.75;7.03;;;;;;;9.88;100.00;93979.69;5071919;28;20149;-69
2022/10/26 01:03:06;;;;;;;11.77;7.13;;;;;;;9.77;100.00;93981.78;5072476;28;20048;-67
2022/10/26 01:05:36;;;;;;;17.30;7.30;;;;;;;9.71;100.00;93984.19;5071877;28;20108;-68
2022/10/26 01:08:03;;;;;;;14.13;7.28;;;;;;;9.70;100.00;93984.56;5072816;28;20044;-68
2022/10/26 01:10:30;;;;;;;16.40;7.82;;;;;;;9.73;100.00;93981.81;5070760;28;20417;-67
2022/10/26 01:12:58;;;;;;;12.55;7.25;;;;;;;9.71;100.00;93977.94;5072917;28;20514;-67
2022/10/26 01:15:37;;;;;;;15.65;7.80;;;;;;;9.75;100.00;93973.19;5071834;28;20037;-67
2022/10/26 01:18:22;;;;;;;14.00;7.33;;;;;;;9.78;100.00;93975.13;5072603;28;20040;-70
2022/10/26 01:21:01;;;;;;;12.48;6.93;;;;;;;9.88;100.00;93974.22;5071749;28;20642;-67
2022/10/26 01:23:34;;;;;;;17.48;8.10;;;;;;;9.92;100.00;93963.19;5071745;28;20049;-68
2022/10/26 01:26:06;;;;;;;11.85;7.05;;;;;;;9.99;100.00;93974.06;5071677;28;20101;-68
2022/10/26 01:28:57;;;;;;;13.15;6.68;;;;;;;9.97;100.00;93958.03;5071537;28;20058;-67
2022/10/26 01:31:33;;;;;;;14.00;6.83;;;;;;;9.81;100.00;93952.34;5071683;28;20048;-68
2022/10/26 01:34:12;;;;;;;12.75;6.82;;;;;;;9.80;100.00;93945.34;5072546;28;20089;-69
2022/10/26 01:36:52;;;;;;;12.68;7.10;;;;;;;9.81;100.00;93941.41;5071238;28;20052;-67
2022/10/26 01:39:28;;;;;;;13.05;6.82;;;;;;;9.68;100.00;93956.81;5072320;28;20055;-67
2022/10/26 01:41:59;;;;;;;11.23;6.97;;;;;;;9.62;100.00;93961.97;5071488;28;20440;-69
2022/10/26 01:44:41;;;;;;;12.30;6.83;;;;;;;9.58;100.00;93964.75;5071908;28;20055;-68
2022/10/26 01:47:12;;;;;;;13.02;6.70;;;;;;;9.62;100.00;93966.66;5071735;28;20040;-70
2022/10/26 01:49:45;;;;;;;11.90;7.13;;;;;;;9.48;100.00;93968.38;5071289;28;20063;-64
2022/10/26 01:52:12;;;;;;;13.00;7.00;;;;;;;9.44;100.00;93967.66;5072330;28;20078;-64
2022/10/26 01:54:39;;;;;;;12.75;6.68;;;;;;;9.44;100.00;93967.66;5069675;28;20049;-65
2022/10/26 01:57:10;;;;;;;11.83;6.53;;;;;;;9.48;100.00;93970.34;5071870;28;20067;-65
2022/10/26 01:59:59;;;;;;;10.90;6.28;;;;;;;9.45;100.00;93982.09;5071078;28;20048;-65
2022/10/26 02:02:36;;;;;;;11.90;6.22;;;;;;;9.48;100.00;93978.56;5070979;28;20101;-65
2022/10/26 02:05:41;;;;;;;10.48;5.95;;;;;;;9.53;100.00;93983.59;5072059;28;20044;-65
2022/10/26 02:08:41;;;;;;;9.88;5.53;;;;;;;9.57;100.00;93987.06;5050838;28;20490;-65
2022/10/26 02:11:29;;;;;;;11.00;5.40;;;;;;;9.63;100.00;93982.69;5050683;28;20655;-66
2022/10/26 02:14:10;;;;;;;10.30;5.68;;;;;;;9.74;100.00;93990.81;5050940;28;20397;-66
2022/10/26 02:17:17;;;;;;;10.30;5.60;;;;;;;9.65;100.00;94007.72;5050229;28;20048;-65
2022/10/26 02:19:56;;;;;;;14.15;5.30;;;;;;;9.59;100.00;94014.84;5031677;28;20037;-65
2022/10/26 02:22:35;;;;;;;9.38;5.65;;;;;;;9.61;100.00;94023.44;5051017;28;20158;-68
2022/10/26 02:25:08;;;;;;;10.70;5.40;;;;;;;9.58;100.00;94029.75;5051191;28;20049;-69
2022/10/26 02:27:39;;;;;;;11.70;5.50;;;;;;;9.60;100.00;94038.31;5050411;28;20053;-66
2022/10/26 02:30:08;;;;;;;8.98;5.32;;;;;;;9.57;100.00;94083.72;5051298;28;20051;-66
2022/10/26 02:32:39;;;;;;;12.02;5.80;;;;;;;9.60;100.00;94088.41;5050390;28;20051;-66
2022/10/26 02:35:06;;;;;;;10.90;6.07;;;;;;;9.47;100.00;94081.09;5051209;28;20383;-70
2022/10/26 02:37:36;;;;;;;12.40;6.40;;;;;;;9.39;100.00;94074.88;5049053;28;20059;-66
2022/10/26 02:40:08;;;;;;;12.48;6.70;;;;;;;9.32;100.00;94064.00;5051213;28;20040;-69
2022/10/26 02:42:38;;;;;;;12.20;5.55;;;;;;;9.46;100.00;94063.13;5050353;28;20427;-68
2022/10/26 02:45:09;;;;;;;12.90;6.70;;;;;;;9.52;100.00;94058.75;5051250;28;20538;-66
2022/10/26 02:47:36;;;;;;;14.57;6.40;;;;;;;9.62;100.00;94062.56;5049546;28;20083;-66
2022/10/26 02:50:03;;;;;;;10.90;6.53;;;;;;;9.72;100.00;94048.00;5050632;28;20041;-66
2022/10/26 02:52:48;;;;;;;10.25;6.13;;;;;;;9.79;100.00;94039.69;5050019;28;20049;-67
2022/10/26 02:55:26;;;;;;;12.20;5.85;;;;;;;9.84;100.00;94044.75;5050665;28;20045;-67
2022/10/26 02:58:05;;;;;;;10.80;5.95;;;;;;;9.94;100.00;94054.00;5049942;28;20045;-68
2022/10/26 03:00:32;;;;;;;10.63;5.47;;;;;;;10.02;100.00;94057.47;5053013;28;20109;-67
2022/10/26 03:03:02;;;;;;;9.43;5.40;;;;;;;10.12;100.00;94059.31;5070526;28;20203;-68
2022/10/26 03:05:35;;;;;;;13.55;4.60;;;;;;;10.17;100.00;94050.66;5069756;28;20048;-67
2022/10/26 03:08:02;;;;;;;9.90;4.53;;;;;;;10.29;100.00;94041.88;5050647;28;20049;-67
2022/10/26 03:10:32;;;;;;;9.43;4.32;;;;;;;10.39;100.00;94051.97;5049829;28;20049;-70
2022/10/26 03:12:59;;;;;;;8.70;4.60;;;;;;;10.37;100.00;94039.84;5050410;28;20051;-68
2022/10/26 03:15:26;;;;;;;8.47;4.50;;;;;;;10.48;100.00;94036.97;5049722;28;20102;-67
2022/10/26 03:17:52;;;;;;;8.07;4.32;;;;;;;10.52;100.00;94034.94;5050223;28;20037;-67
2022/10/26 03:20:19;;;;;;;10.63;4.63;;;;;;;10.59;100.00;94037.63;5065575;28;20094;-65
2022/10/26 03:22:46;;;;;;;10.02;4.70;;;;;;;10.58;100.00;94047.81;5048681;28;20047;-69
2022/10/26 03:25:14;;;;;;;7.95;4.63;;;;;;;10.58;100.00;94039.59;5048909;28;20052;-67
2022/10/26 03:27:41;;;;;;;7.53;4.40;;;;;;;10.63;100.00;94037.56;5049796;28;20048;-67
2022/10/26 03:30:08;;;;;;;71.93;34.95;;;;;;;10.65;100.00;94033.22;5048937;28;20051;-65
2022/10/26 03:32:35;;;;;;;15.20;8.27;;;;;;;10.71;100.00;94039.78;5048205;28;20051;-64
2022/10/26 03:35:02;;;;;;;9.13;4.25;;;;;;;10.48;100.00;94040.47;5049987;28;20040;-64
2022/10/26 03:37:28;;;;;;;7.10;3.90;;;;;;;10.59;100.00;94048.59;5049247;28;20423;-67
2022/10/26 03:39:55;;;;;;;11.80;4.10;;;;;;;10.53;100.00;94064.72;5049923;28;20041;-67
2022/10/26 03:42:22;;;;;;;8.32;4.10;;;;;;;10.55;100.00;94056.88;5049360;28;20051;-68
2022/10/26 03:44:48;;;;;;;8.80;4.43;;;;;;;10.53;100.00;94044.75;5049593;28;20043;-65
2022/10/26 03:47:15;;;;;;;9.00;4.45;;;;;;;10.57;100.00;94042.75;5059851;28;20408;-65
2022/10/26 03:49:42;;;;;;;8.73;4.20;;;;;;;10.55;100.00;94029.41;5069159;28;20048;-65
2022/10/26 03:52:08;;;;;;;9.90;4.20;;;;;;;10.61;100.00;94032.50;5069857;28;20040;-65
2022/10/26 03:54:35;;;;;;;11.15;4.25;;;;;;;10.53;100.00;94033.78;5068977;28;20531;-68
2022/10/26 03:57:01;;;;;;;8.35;4.28;;;;;;;10.54;100.00;94038.84;5069702;28;20045;-64
2022/10/26 03:59:28;;;;;;;8.02;3.70;;;;;;;10.55;100.00;94045.88;5068586;28;20053;-64
2022/10/26 04:01:55;;;;;;;8.15;3.90;;;;;;;10.68;100.00;94057.06;5069402;28;20433;-65
2022/10/26 04:04:24;;;;;;;7.33;4.00;;;;;;;10.63;100.00;94068.53;5067781;28;20459;-65
2022/10/26 04:06:50;;;;;;;7.00;3.92;;;;;;;10.65;100.00;94071.66;5069240;28;20552;-66
2022/10/26 04:09:17;;;;;;;10.07;4.57;;;;;;;10.59;100.00;94082.28;5069758;28;20045;-66
2022/10/26 04:11:44;;;;;;;7.78;4.50;;;;;;;10.60;100.00;94085.81;5068754;28;20102;-66
2022/10/26 04:14:10;;;;;;;9.07;4.30;;;;;;;10.61;100.00;94081.13;5069489;28;20040;-66
2022/10/26 04:16:37;;;;;;;8.33;4.47;;;;;;;10.65;100.00;94085.38;5067146;28;20063;-68
2022/10/26 04:19:03;;;;;;;13.55;5.78;;;;;;;10.76;100.00;94087.97;5069699;28;20039;-67
2022/10/26 04:21:32;;;;;;;10.55;4.88;;;;;;;10.82;100.00;94091.03;5068844;28;20045;-67
2022/10/26 04:23:58;;;;;;;11.30;5.93;;;;;;;10.80;100.00;94096.94;5065899;28;20101;-69
2022/10/26 04:26:25;;;;;;;18.13;8.30;;;;;;;10.76;100.00;94098.94;5068309;28;20055;-66
2022/10/26 04:28:51;;;;;;;102.33;39.47;;;;;;;10.58;100.00;94093.69;5068900;28;20427;-67
2022/10/26 04:31:18;;;;;;;87.63;34.65;;;;;;;10.67;100.00;94085.72;5068214;28;20406;-65
2022/10/26 04:33:45;;;;;;;31.52;12.85;;;;;;;10.71;100.00;94085.69;5068265;28;20414;-67
2022/10/26 04:36:12;;;;;;;12.88;5.75;;;;;;;10.66;100.00;94086.91;5069354;28;20385;-67
2022/10/26 04:38:38;;;;;;;9.70;4.30;;;;;;;10.63;100.00;94090.50;5068346;28;20047;-66
2022/10/26 04:41:05;;;;;;;33.47;17.97;;;;;;;10.63;100.00;94074.03;5067910;28;20055;-66
2022/10/26 04:43:31;;;;;;;68.55;34.33;;;;;;;10.54;100.00;94066.31;5068367;28;20404;-69
2022/10/26 04:45:58;;;;;;;21.35;11.32;;;;;;;10.52;100.00;94074.16;5068085;28;20037;-68
2022/10/26 04:48:25;;;;;;;10.95;5.40;;;;;;;10.47;100.00;94074.59;5068417;28;20046;-66
2022/10/26 04:50:52;;;;;;;13.68;6.25;;;;;;;10.55;100.00;94072.56;5068911;28;20455;-66
2022/10/26 04:53:18;;;;;;;10.73;5.33;;;;;;;10.58;100.00;94068.97;5069397;28;20037;-67
2022/10/26 04:55:45;;;;;;;10.00;5.38;;;;;;;10.64;100.00;94072.81;5067774;28;20870;-69
2022/10/26 04:58:11;;;;;;;9.00;5.40;;;;;;;10.64;100.00;94063.81;5069174;28;20051;-67
2022/10/26 05:00:38;;;;;;;22.23;10.75;;;;;;;10.66;100.00;94062.19;5063401;28;20045;-67
2022/10/26 05:03:06;;;;;;;10.82;5.55;;;;;;;10.65;100.00;94068.13;5049212;28;20158;-66
2022/10/26 05:05:34;;;;;;;11.50;5.50;;;;;;;10.61;100.00;94062.69;5048672;28;20091;-67
2022/10/26 05:08:01;;;;;;;12.65;7.30;;;;;;;10.58;100.00;94066.22;5067870;28;20044;-66
2022/10/26 05:10:28;;;;;;;11.38;6.78;;;;;;;10.59;100.00;94065.06;5068810;28;20080;-66
2022/10/26 05:12:56;;;;;;;11.43;7.10;;;;;;;10.60;100.00;94058.38;5071654;28;20048;-69
2022/10/26 05:15:23;;;;;;;11.90;6.47;;;;;;;10.58;100.00;94061.53;5071777;28;20071;-67
2022/10/26 05:18:01;;;;;;;11.83;6.33;;;;;;;10.61;100.00;94070.91;5071962;28;20113;-69
2022/10/26 05:20:30;;;;;;;15.98;7.63;;;;;;;10.59;100.00;94074.06;5071779;28;20047;-66
2022/10/26 05:22:59;;;;;;;13.70;7.80;;;;;;;10.58;100.00;94074.47;5072217;28;20489;-66
2022/10/26 05:25:28;;;;;;;13.10;7.90;;;;;;;10.59;100.00;94087.78;5072018;28;20063;-65
2022/10/26 05:27:59;;;;;;;14.15;7.60;;;;;;;10.60;100.00;94102.28;5072139;28;20066;-68
2022/10/26 05:30:27;;;;;;;16.23;8.07;;;;;;;10.59;100.00;94092.50;5071663;28;20481;-66
2022/10/26 05:32:59;;;;;;;13.93;7.70;;;;;;;10.61;100.00;94094.84;5072232;28;20048;-65
2022/10/26 05:35:26;;;;;;;14.27;9.50;;;;;;;10.57;100.00;94092.13;5071744;28;20055;-69
2022/10/26 05:37:53;;;;;;;15.45;7.80;;;;;;;10.58;100.00;94083.50;5071459;28;20455;-66
2022/10/26 05:40:20;;;;;;;13.73;8.02;;;;;;;10.61;100.00;94078.38;5071628;28;20561;-64
2022/10/26 05:42:47;;;;;;;14.23;8.20;;;;;;;10.63;100.00;94078.75;5071795;28;20121;-66
2022/10/26 05:45:14;;;;;;;16.52;8.70;;;;;;;10.58;100.00;94093.69;5071802;28;20040;-66
2022/10/26 05:47:43;;;;;;;15.77;8.45;;;;;;;10.57;100.00;94070.94;5070899;28;20047;-69
2022/10/26 05:50:11;;;;;;;17.83;8.55;;;;;;;10.57;100.00;94073.69;5071724;28;20412;-68
2022/10/26 05:52:43;;;;;;;17.98;8.63;;;;;;;10.58;100.00;94074.47;5071198;28;20048;-66
2022/10/26 05:55:15;;;;;;;15.00;7.90;;;;;;;10.49;100.00;94079.69;5071709;28;20098;-66
2022/10/26 05:57:42;;;;;;;13.95;8.43;;;;;;;10.45;100.00;94082.47;5069691;28;20045;-66
2022/10/26 06:00:15;;;;;;;16.20;8.73;;;;;;;10.37;100.00;94081.78;5070324;28;20047;-67
2022/10/26 06:03:00;;;;;;;15.23;8.13;;;;;;;10.42;100.00;94097.00;5070784;28;20071;-70
2022/10/26 06:05:30;;;;;;;17.20;8.70;;;;;;;10.39;100.00;94101.34;5070147;28;20048;-66
2022/10/26 06:07:57;;;;;;;14.60;8.57;;;;;;;10.42;100.00;94104.47;5070937;28;20132;-68
2022/10/26 06:10:24;;;;;;;13.10;7.90;;;;;;;10.44;100.00;94111.09;5071158;28;20482;-66
2022/10/26 06:12:51;;;;;;;15.52;7.60;;;;;;;10.33;100.00;94113.97;5071307;28;20071;-66
2022/10/26 06:15:20;;;;;;;14.63;7.55;;;;;;;10.29;100.00;94126.13;5071573;28;20032;-66
2022/10/26 06:18:06;;;;;;;12.98;6.57;;;;;;;10.20;100.00;94137.56;5069965;28;20101;-65
2022/10/26 06:20:49;;;;;;;13.87;6.77;;;;;;;10.24;100.00;94141.09;5070647;28;20114;-66
2022/10/26 06:23:54;;;;;;;12.50;7.03;;;;;;;10.21;100.00;94147.38;5070882;28;20063;-67
2022/10/26 06:26:49;;;;;;;14.75;7.40;;;;;;;10.13;100.00;94140.41;5069962;28;22662;-68
2022/10/26 06:29:16;;;;;;;15.45;7.72;;;;;;;10.16;100.00;94132.16;5071099;28;20046;-66
2022/10/26 06:31:44;;;;;;;15.77;8.18;;;;;;;10.16;100.00;94145.84;5069327;28;20040;-66
2022/10/26 06:34:16;;;;;;;12.77;6.63;;;;;;;10.00;100.00;94137.41;5071209;28;20040;-67
2022/10/26 06:36:45;;;;;;;12.73;7.05;;;;;;;9.99;100.00;94135.84;5070243;28;20051;-65
2022/10/26 06:39:14;;;;;;;14.45;7.30;;;;;;;10.09;100.00;94148.66;5070891;28;20045;-64
2022/10/26 06:41:41;;;;;;;13.07;8.20;;;;;;;10.23;100.00;94142.25;5069353;28;20044;-68
2022/10/26 06:44:14;;;;;;;16.40;8.63;;;;;;;10.37;100.00;94138.63;5070688;28;20392;-66
2022/10/26 06:47:06;;;;;;;15.03;8.17;;;;;;;10.49;100.00;94151.03;5068643;28;20485;-65
2022/10/26 06:49:41;;;;;;;18.08;7.90;;;;;;;10.53;100.00;94138.81;5070286;28;20040;-69
2022/10/26 06:52:28;;;;;;;16.10;8.13;;;;;;;10.63;100.00;94139.13;5070913;28;20056;-65
2022/10/26 06:54:55;;;;;;;14.65;8.00;;;;;;;10.73;100.00;94149.19;5049562;28;21505;-67
2022/10/26 06:57:25;;;;;;;13.82;7.57;;;;;;;10.81;100.00;94134.19;5050121;28;20041;-64
2022/10/26 06:59:53;;;;;;;13.30;7.20;;;;;;;10.90;100.00;94150.91;5050394;28;20435;-66
2022/10/26 07:02:20;;;;;;;15.95;7.35;;;;;;;10.98;100.00;94148.84;5050186;28;20045;-68
2022/10/26 07:04:47;;;;;;;13.13;7.03;;;;;;;11.13;100.00;94161.22;5050259;28;20036;-64
2022/10/26 07:07:20;;;;;;;13.07;6.65;;;;;;;11.26;100.00;94149.66;5034744;28;20054;-65
2022/10/26 07:09:47;;;;;;;12.23;6.60;;;;;;;12.06;100.00;94166.53;5028901;28;20409;-66
2022/10/26 07:12:14;;;;;;;12.97;5.73;;;;;;;12.28;100.00;94161.44;5030175;28;20049;-66
2022/10/26 07:14:41;;;;;;;10.70;5.90;;;;;;;12.26;100.00;94163.84;5049240;28;20045;-64
2022/10/26 07:17:09;;;;;;;15.93;6.30;;;;;;;11.94;100.00;94165.94;5051757;28;20063;-66
2022/10/26 07:19:35;;;;;;;15.85;6.70;;;;;;;12.11;100.00;94164.09;5056900;28;20131;-66
2022/10/26 07:22:02;;;;;;;10.35;6.38;;;;;;;12.32;100.00;94176.69;5060114;28;20044;-66
2022/10/26 07:24:30;;;;;;;9.80;5.70;;;;;;;12.55;98.52;94173.09;5053772;28;20051;-67
2022/10/26 07:26:57;;;;;;;11.32;6.07;;;;;;;12.52;97.68;94167.69;5064171;28;20044;-67
2022/10/26 07:29:26;;;;;;;12.23;6.55;;;;;;;12.62;97.83;94185.22;5050122;28;20110;-66
2022/10/26 07:31:52;;;;;;;10.68;5.70;;;;;;;16.11;85.89;94175.22;5050131;28;20440;-67
2022/10/26 07:34:19;;;;;;;9.38;5.00;;;;;;;18.52;71.83;94190.19;5055072;28;20040;-66
2022/10/26 07:36:46;;;;;;;7.80;4.20;;;;;;;20.48;65.03;94176.22;5056579;28;20052;-67
2022/10/26 07:39:12;;;;;;;7.25;4.20;;;;;;;21.47;58.32;94187.56;5050202;28;20057;-68
2022/10/26 07:41:39;;;;;;;8.05;4.10;;;;;;;21.41;54.60;94190.25;5049781;28;20041;-67
2022/10/26 07:44:05;;;;;;;6.10;3.50;;;;;;;23.43;52.45;94200.09;5050467;28;20098;-68
2022/10/26 07:46:32;;;;;;;7.95;3.95;;;;;;;24.59;48.31;94202.13;5049594;28;20059;-68
2022/10/26 07:48:59;;;;;;;7.13;4.33;;;;;;;25.04;46.91;94202.38;5049869;28;20041;-70
2022/10/26 07:51:25;;;;;;;12.27;4.00;;;;;;;25.23;43.75;94205.53;5055627;28;20063;-65
2022/10/26 07:53:52;;;;;;;7.50;3.90;;;;;;;22.69;50.47;94208.84;5058370;28;20036;-67
2022/10/26 07:56:19;;;;;;;8.43;3.97;;;;;;;20.93;53.61;94195.94;5049689;28;20157;-65
2022/10/26 07:58:45;;;;;;;8.27;4.00;;;;;;;19.08;59.86;94216.06;5049447;28;20379;-67
2022/10/26 08:01:14;;;;;;;6.63;3.10;;;;;;;19.85;58.06;94209.47;5056581;28;20040;-67
2022/10/26 08:03:41;;;;;;;7.65;3.60;;;;;;;21.31;54.81;94208.34;5049242;28;20074;-67
2022/10/26 08:06:09;;;;;;;6.93;3.15;;;;;;;24.30;48.30;94217.97;5054094;28;20049;-68
2022/10/26 08:08:36;;;;;;;9.32;3.60;;;;;;;25.75;43.62;94213.59;5049382;28;20044;-66
2022/10/26 08:11:04;;;;;;;7.72;3.50;;;;;;;26.79;41.29;94213.88;5049657;28;20041;-66
2022/10/26 08:13:34;;;;;;;8.30;4.07;;;;;;;20.62;52.83;94227.72;5057500;28;20044;-67
2022/10/26 08:16:04;;;;;;;7.57;3.50;;;;;;;21.15;53.46;94215.16;5060963;28;20055;-67
2022/10/26 08:18:31;;;;;;;8.93;3.35;;;;;;;26.29;42.59;94219.03;5047620;28;20654;-67
2022/10/26 08:21:03;;;;;;;7.50;2.60;;;;;;;22.17;47.80;94220.50;5049729;28;20041;-67
2022/10/26 08:23:37;;;;;;;6.35;2.70;;;;;;;21.92;52.46;94230.28;5064723;28;20053;-69
2022/10/26 08:26:04;;;;;;;5.60;2.47;;;;;;;18.98;59.89;94230.44;5059609;28;20102;-68
2022/10/26 08:28:31;;;;;;;5.30;2.30;;;;;;;20.28;55.99;94220.59;5057995;28;20043;-68
2022/10/26 08:30:58;;;;;;;5.78;2.50;;;;;;;20.52;56.65;94232.59;5057815;28;20394;-68
2022/10/26 08:33:25;;;;;;;8.02;2.80;;;;;;;20.56;57.53;94229.59;5048985;28;20055;-67
2022/10/26 08:35:59;;;;;;;6.20;2.55;;;;;;;18.91;61.44;94232.28;5049876;28;20040;-66
2022/10/26 08:38:27;;;;;;;6.40;2.70;;;;;;;19.25;61.54;94236.00;5049168;28;20043;-65
2022/10/26 08:40:56;;;;;;;8.63;3.20;;;;;;;18.34;64.49;94245.72;5048795;28;20051;-68
2022/10/26 08:43:30;;;;;;;8.63;2.90;;;;;;;19.04;62.41;94229.34;5049068;28;20049;-67
2022/10/26 08:46:08;;;;;;;8.02;2.97;;;;;;;18.34;64.70;94235.38;5049886;28;20040;-65
2022/10/26 08:48:45;;;;;;;9.15;2.97;;;;;;;18.38;65.54;94242.81;5052368;28;20045;-66
2022/10/26 08:51:23;;;;;;;9.87;3.30;;;;;;;18.36;65.58;94244.03;5053506;28;20045;-65
2022/10/26 08:54:00;;;;;;;8.40;3.80;;;;;;;18.47;65.62;94249.16;5052455;28;20853;-65
2022/10/26 08:56:37;;;;;;;8.48;2.80;;;;;;;18.57;63.65;94241.59;5052552;28;20044;-65
2022/10/26 08:59:07;;;;;;;6.63;2.33;;;;;;;17.98;64.38;94243.56;5053201;28;20037;-65
2022/10/26 09:01:33;;;;;;;7.60;2.33;;;;;;;17.20;67.99;94248.00;5063931;28;20059;-65
2022/10/26 09:04:02;;;;;;;10.70;2.73;;;;;;;17.46;67.28;94254.97;5054834;28;20037;-65
2022/10/26 09:06:41;;;;;;;11.90;2.80;;;;;;;18.34;65.83;94243.72;5060507;28;20051;-65
2022/10/26 09:09:22;;;;;;;10.00;3.05;;;;;;;18.66;64.52;94243.66;5058652;28;20105;-66
2022/10/26 09:12:10;;;;;;;7.70;2.40;;;;;;;18.59;64.24;94250.25;5059658;28;20494;-65
2022/10/26 09:14:39;;;;;;;7.25;2.80;;;;;;;19.24;62.53;94253.94;5052665;28;20045;-66
2022/10/26 09:17:28;;;;;;;8.37;3.10;;;;;;;19.57;63.90;94256.06;5052415;28;20045;-70
2022/10/26 09:20:25;;;;;;;11.18;3.63;;;;;;;21.24;58.90;94245.00;5072001;28;20051;-66
2022/10/26 09:22:51;;;;;;;8.93;3.40;;;;;;;21.11;57.01;94248.81;5050966;28;21939;-66
2022/10/26 09:25:21;;;;;;;9.95;3.40;;;;;;;21.43;55.69;94252.00;5056134;28;20046;-67
2022/10/26 09:27:56;;;;;;;14.15;4.18;;;;;;;20.91;57.34;94263.38;5061697;28;20048;-68
2022/10/26 09:30:23;;;;;;;11.73;3.27;;;;;;;21.64;54.42;94260.50;5052298;28;20083;-66
2022/10/26 09:32:58;;;;;;;8.10;3.05;;;;;;;21.66;53.33;94267.16;5052538;28;20045;-68
2022/10/26 09:35:30;;;;;;;11.85;3.15;;;;;;;20.27;57.93;94280.38;5052155;28;20516;-67
2022/10/26 09:38:09;;;;;;;11.20;3.67;;;;;;;21.79;53.74;94269.66;5052508;28;20067;-67
2022/10/26 09:41:00;;;;;;;10.63;3.60;;;;;;;22.05;53.90;94267.06;5051968;28;20060;-68
2022/10/26 09:43:56;;;;;;;11.50;3.63;;;;;;;24.01;49.56;94272.28;5051851;28;20040;-67
2022/10/26 09:46:32;;;;;;;13.15;3.85;;;;;;;24.76;45.62;94272.41;5065363;28;20271;-68
2022/10/26 09:49:07;;;;;;;7.53;3.28;;;;;;;23.45;49.20;94266.81;5052347;28;20322;-68
2022/10/26 09:51:37;;;;;;;8.35;3.20;;;;;;;22.02;53.79;94262.44;5051781;28;20049;-67
2022/10/26 09:54:13;;;;;;;9.23;3.05;;;;;;;23.86;48.39;94259.13;5051981;28;20051;-67
2022/10/26 09:56:46;;;;;;;12.07;2.80;;;;;;;23.28;48.79;94270.19;5051549;28;20059;-66
2022/10/26 09:59:16;;;;;;;8.10;2.58;;;;;;;23.07;47.93;94274.25;5051721;28;20045;-67
2022/10/26 10:01:43;;;;;;;10.25;2.80;;;;;;;23.49;47.91;94278.59;5058550;28;20409;-64
2022/10/26 10:04:13;;;;;;;8.60;2.40;;;;;;;26.59;40.64;94274.81;5050358;28;20053;-64
2022/10/26 10:06:40;;;;;;;7.65;2.20;;;;;;;27.98;37.93;94279.06;5057259;28;20110;-65
2022/10/26 10:09:10;;;;;;;9.07;2.00;;;;;;;25.31;40.78;94280.41;5051896;28;20405;-65
2022/10/26 10:11:44;;;;;;;11.40;2.40;;;;;;;25.46;40.54;94279.44;5051424;28;20045;-65
2022/10/26 10:14:16;;;;;;;7.30;2.20;;;;;;;24.24;42.92;94285.22;5052122;28;20052;-65
2022/10/26 10:16:56;;;;;;;8.25;2.15;;;;;;;22.21;47.70;94293.00;5050957;28;20033;-64
2022/10/26 10:19:26;;;;;;;9.57;2.40;;;;;;;24.69;41.99;94288.44;5051187;28;20170;-65
2022/10/26 10:21:56;;;;;;;7.30;1.90;;;;;;;27.55;37.31;94280.28;5055548;28;20041;-66
2022/10/26 10:24:29;;;;;;;7.95;2.10;;;;;;;27.38;38.29;94285.94;5053019;28;20387;-67
2022/10/26 10:26:59;;;;;;;5.45;1.80;;;;;;;27.56;35.50;94284.59;5065193;28;20054;-66
2022/10/26 10:29:28;;;;;;;7.78;1.73;;;;;;;26.04;39.56;94293.19;5050340;28;20401;-66
2022/10/26 10:32:00;;;;;;;7.20;1.90;;;;;;;25.06;41.34;94298.88;5060168;28;20068;-65
2022/10/26 10:34:31;;;;;;;8.37;2.60;;;;;;;25.86;39.57;94300.00;5044075;28;20075;-66
2022/10/26 10:37:00;;;;;;;9.90;2.10;;;;;;;26.00;38.91;94303.91;5049535;28;20044;-66
2022/10/26 10:39:39;;;;;;;6.78;1.77;;;;;;;24.89;40.66;94309.22;5049104;28;20079;-66
2022/10/26 10:42:17;;;;;;;7.53;2.00;;;;;;;25.59;40.41;94304.25;5049615;28;20746;-65
2022/10/26 10:44:45;;;;;;;9.02;1.92;;;;;;;26.33;39.19;94311.63;5049505;28;20037;-66
2022/10/26 10:47:21;;;;;;;9.50;1.80;;;;;;;23.98;43.40;94309.69;5050488;28;20562;-66
2022/10/26 10:49:57;;;;;;;10.60;2.22;;;;;;;24.42;43.24;94314.97;5058008;28;21616;-66
2022/10/26 10:52:34;;;;;;;6.07;1.83;;;;;;;26.06;40.86;94305.44;5048614;28;20053;-66
2022/10/26 10:55:16;;;;;;;6.93;2.05;;;;;;;27.40;37.43;94308.00;5052078;28;20390;-66
2022/10/26 10:58:14;;;;;;;8.27;3.00;;;;;;;27.33;37.51;94305.72;5050502;28;20041;-66
2022/10/26 11:00:42;;;;;;;7.77;1.83;;;;;;;26.26;39.12;94310.09;5052414;28;20049;-67
2022/10/26 11:03:28;;;;;;;6.20;1.90;;;;;;;25.58;40.77;94313.97;5054355;28;20105;-66
2022/10/26 11:06:15;;;;;;;7.30;2.10;;;;;;;27.70;37.28;94310.94;5057505;28;20407;-66
2022/10/26 11:08:59;;;;;;;9.00;2.03;;;;;;;28.36;35.44;94308.31;5048223;28;20045;-65
2022/10/26 11:11:31;;;;;;;8.43;2.00;;;;;;;28.02;37.30;94311.34;5034752;28;20048;-65
2022/10/26 11:14:11;;;;;;;9.80;1.90;;;;;;;28.39;35.39;94307.28;5051380;28;20079;-66
2022/10/26 11:16:54;;;;;;;9.65;2.22;;;;;;;26.99;37.04;94319.84;5050346;28;20057;-66
2022/10/26 11:19:29;;;;;;;7.07;2.10;;;;;;;25.99;39.04;94319.22;5055697;28;20102;-63
2022/10/26 11:21:56;;;;;;;6.38;2.50;;;;;;;26.14;39.60;94333.84;5050080;28;20049;-65
2022/10/26 11:24:35;;;;;;;8.93;2.35;;;;;;;26.44;38.59;94327.75;5060876;28;20037;-65
2022/10/26 11:27:22;;;;;;;8.30;1.87;;;;;;;26.38;39.32;94330.56;5061645;28;20068;-65
2022/10/26 11:30:17;;;;;;;8.88;2.00;;;;;;;25.24;40.04;94323.00;5049073;28;20049;-66
2022/10/26 11:32:50;;;;;;;7.55;2.20;;;;;;;24.78;41.91;94329.56;5046805;28;20448;-65
2022/10/26 11:35:25;;;;;;;8.00;2.08;;;;;;;25.37;40.60;94322.53;5049933;28;20037;-63
2022/10/26 11:38:27;;;;;;;8.25;1.98;;;;;;;23.40;45.04;94332.72;5047225;28;20416;-65
2022/10/26 11:41:27;;;;;;;8.17;2.30;;;;;;;22.85;46.28;94325.06;5031642;28;20923;-64
2022/10/26 11:44:34;;;;;;;7.18;2.10;;;;;;;21.39;49.60;94329.56;5048256;28;21765;-71
2022/10/26 11:47:07;;;;;;;9.15;2.53;;;;;;;21.45;50.31;94332.47;5047733;28;20048;-64